sensor_id;sensor_type;location;lat;lon;timestamp;temperature;humidity
16863;DHT22;52193;48.216;-1.698;2023-06-14T00:00:06;24.20;74.20
16863;DHT22;52193;48.216;-1.698;2023-06-14T00:02:33;24.10;74.40
16863;DHT22;52193;48.216;-1.698;2023-06-14T00:05:00;24.10;74.70
16863;DHT22;52193;48.216;-1.698;2023-06-14T00:07:35;24.00;74.90
16863;DHT22;52193;48.216;-1.698;2023-06-14T00:10:04;24.10;75.00
16863;DHT22;52193;48.216;-1.698;2023-06-14T00:12:31;24.00;75.10
16863;DHT22;52193;48.216;-1.698;2023-06-14T00:14:58;24.00;75.10
16863;DHT22;52193;48.216;-1.698;2023-06-14T00:17:27;24.00;75.20
16863;DHT22;52193;48.216;-1.698;2023-06-14T00:19:55;24.00;75.40
16863;DHT22;52193;48.216;-1.698;2023-06-14T00:22:23;24.00;75.50
16863;DHT22;52193;48.216;-1.698;2023-06-14T00:24:51;23.90;75.60
16863;DHT22;52193;48.216;-1.698;2023-06-14T00:27:19;24.00;75.80
16863;DHT22;52193;48.216;-1.698;2023-06-14T00:29:46;24.00;75.80
16863;DHT22;52193;48.216;-1.698;2023-06-14T00:32:13;23.90;75.90
16863;DHT22;52193;48.216;-1.698;2023-06-14T00:34:40;23.80;76.10
16863;DHT22;52193;48.216;-1.698;2023-06-14T00:37:07;23.70;76.20
16863;DHT22;52193;48.216;-1.698;2023-06-14T00:39:34;23.80;76.40
16863;DHT22;52193;48.216;-1.698;2023-06-14T00:42:00;23.80;76.40
16863;DHT22;52193;48.216;-1.698;2023-06-14T00:44:29;23.80;76.40
16863;DHT22;52193;48.216;-1.698;2023-06-14T00:46:56;23.80;76.50
16863;DHT22;52193;48.216;-1.698;2023-06-14T00:49:23;23.70;76.60
16863;DHT22;52193;48.216;-1.698;2023-06-14T00:51:50;23.80;76.80
16863;DHT22;52193;48.216;-1.698;2023-06-14T00:54:17;23.70;76.60
16863;DHT22;52193;48.216;-1.698;2023-06-14T00:56:44;23.70;76.70
16863;DHT22;52193;48.216;-1.698;2023-06-14T00:59:12;23.60;76.80
16863;DHT22;52193;48.216;-1.698;2023-06-14T01:01:40;23.60;77.00
16863;DHT22;52193;48.216;-1.698;2023-06-14T01:04:07;23.50;77.10
16863;DHT22;52193;48.216;-1.698;2023-06-14T01:06:41;23.60;77.10
16863;DHT22;52193;48.216;-1.698;2023-06-14T01:09:17;23.60;77.30
16863;DHT22;52193;48.216;-1.698;2023-06-14T01:11:53;23.50;77.20
16863;DHT22;52193;48.216;-1.698;2023-06-14T01:14:21;23.50;77.50
16863;DHT22;52193;48.216;-1.698;2023-06-14T01:16:50;23.50;77.50
16863;DHT22;52193;48.216;-1.698;2023-06-14T01:19:19;23.40;77.70
16863;DHT22;52193;48.216;-1.698;2023-06-14T01:21:48;23.40;77.80
16863;DHT22;52193;48.216;-1.698;2023-06-14T01:24:18;23.40;77.80
16863;DHT22;52193;48.216;-1.698;2023-06-14T01:26:49;23.40;78.00
16863;DHT22;52193;48.216;-1.698;2023-06-14T01:29:17;23.40;78.10
16863;DHT22;52193;48.216;-1.698;2023-06-14T01:31:45;23.40;78.10
16863;DHT22;52193;48.216;-1.698;2023-06-14T01:34:12;23.30;78.20
16863;DHT22;52193;48.216;-1.698;2023-06-14T01:36:41;23.30;78.40
16863;DHT22;52193;48.216;-1.698;2023-06-14T01:39:09;23.30;78.50
16863;DHT22;52193;48.216;-1.698;2023-06-14T01:41:39;23.30;78.70
16863;DHT22;52193;48.216;-1.698;2023-06-14T01:44:06;23.20;78.60
16863;DHT22;52193;48.216;-1.698;2023-06-14T01:46:34;23.30;78.80
16863;DHT22;52193;48.216;-1.698;2023-06-14T01:49:01;23.10;78.90
16863;DHT22;52193;48.216;-1.698;2023-06-14T01:51:28;23.10;79.00
16863;DHT22;52193;48.216;-1.698;2023-06-14T01:53:55;23.20;79.10
16863;DHT22;52193;48.216;-1.698;2023-06-14T01:56:23;23.10;79.20
16863;DHT22;52193;48.216;-1.698;2023-06-14T01:58:51;23.10;79.50
16863;DHT22;52193;48.216;-1.698;2023-06-14T02:01:19;23.10;79.60
16863;DHT22;52193;48.216;-1.698;2023-06-14T02:03:46;23.00;79.50
16863;DHT22;52193;48.216;-1.698;2023-06-14T02:06:14;23.00;79.70
16863;DHT22;52193;48.216;-1.698;2023-06-14T02:08:42;23.00;79.80
16863;DHT22;52193;48.216;-1.698;2023-06-14T02:11:09;23.00;79.80
16863;DHT22;52193;48.216;-1.698;2023-06-14T02:13:36;23.00;80.60
16863;DHT22;52193;48.216;-1.698;2023-06-14T02:16:04;23.00;79.90
16863;DHT22;52193;48.216;-1.698;2023-06-14T02:18:31;23.00;79.80
16863;DHT22;52193;48.216;-1.698;2023-06-14T02:20:58;23.00;79.90
16863;DHT22;52193;48.216;-1.698;2023-06-14T02:23:25;23.00;80.00
16863;DHT22;52193;48.216;-1.698;2023-06-14T02:25:52;23.00;79.90
16863;DHT22;52193;48.216;-1.698;2023-06-14T02:28:19;23.00;80.00
16863;DHT22;52193;48.216;-1.698;2023-06-14T02:30:46;23.00;80.00
16863;DHT22;52193;48.216;-1.698;2023-06-14T02:33:14;23.00;80.00
16863;DHT22;52193;48.216;-1.698;2023-06-14T02:35:43;22.90;80.10
16863;DHT22;52193;48.216;-1.698;2023-06-14T02:38:10;22.90;80.10
16863;DHT22;52193;48.216;-1.698;2023-06-14T02:40:37;22.90;80.40
16863;DHT22;52193;48.216;-1.698;2023-06-14T02:43:04;22.90;80.40
16863;DHT22;52193;48.216;-1.698;2023-06-14T02:45:31;22.90;80.50
16863;DHT22;52193;48.216;-1.698;2023-06-14T02:47:58;22.80;80.40
16863;DHT22;52193;48.216;-1.698;2023-06-14T02:50:26;22.70;80.50
16863;DHT22;52193;48.216;-1.698;2023-06-14T02:52:53;22.80;80.70
16863;DHT22;52193;48.216;-1.698;2023-06-14T02:55:22;22.70;80.70
16863;DHT22;52193;48.216;-1.698;2023-06-14T02:57:49;22.70;80.80
16863;DHT22;52193;48.216;-1.698;2023-06-14T03:00:17;22.70;80.90
16863;DHT22;52193;48.216;-1.698;2023-06-14T03:02:45;22.80;80.90
16863;DHT22;52193;48.216;-1.698;2023-06-14T03:05:12;22.70;80.90
16863;DHT22;52193;48.216;-1.698;2023-06-14T03:07:41;22.70;80.90
16863;DHT22;52193;48.216;-1.698;2023-06-14T03:10:10;22.70;81.10
16863;DHT22;52193;48.216;-1.698;2023-06-14T03:12:38;22.60;81.10
16863;DHT22;52193;48.216;-1.698;2023-06-14T03:15:06;22.60;81.20
16863;DHT22;52193;48.216;-1.698;2023-06-14T03:17:33;22.70;81.20
16863;DHT22;52193;48.216;-1.698;2023-06-14T03:20:01;22.60;81.20
16863;DHT22;52193;48.216;-1.698;2023-06-14T03:22:31;22.60;81.20
16863;DHT22;52193;48.216;-1.698;2023-06-14T03:25:01;22.60;81.20
16863;DHT22;52193;48.216;-1.698;2023-06-14T03:27:29;22.60;81.20
16863;DHT22;52193;48.216;-1.698;2023-06-14T03:29:56;22.70;81.30
16863;DHT22;52193;48.216;-1.698;2023-06-14T03:32:23;22.60;81.30
16863;DHT22;52193;48.216;-1.698;2023-06-14T03:34:50;22.60;81.30
16863;DHT22;52193;48.216;-1.698;2023-06-14T03:37:18;22.50;81.50
16863;DHT22;52193;48.216;-1.698;2023-06-14T03:39:45;22.50;81.50
16863;DHT22;52193;48.216;-1.698;2023-06-14T03:42:14;22.40;81.50
16863;DHT22;52193;48.216;-1.698;2023-06-14T03:44:41;22.50;81.60
16863;DHT22;52193;48.216;-1.698;2023-06-14T03:47:08;22.40;81.50
16863;DHT22;52193;48.216;-1.698;2023-06-14T03:49:35;22.40;81.60
16863;DHT22;52193;48.216;-1.698;2023-06-14T03:52:03;22.40;81.60
16863;DHT22;52193;48.216;-1.698;2023-06-14T03:54:30;22.40;81.70
16863;DHT22;52193;48.216;-1.698;2023-06-14T03:56:58;22.40;81.70
16863;DHT22;52193;48.216;-1.698;2023-06-14T03:59:26;22.40;81.70
16863;DHT22;52193;48.216;-1.698;2023-06-14T04:01:54;22.40;81.70
16863;DHT22;52193;48.216;-1.698;2023-06-14T04:04:21;22.30;81.80
16863;DHT22;52193;48.216;-1.698;2023-06-14T04:06:55;22.30;81.90
16863;DHT22;52193;48.216;-1.698;2023-06-14T04:09:22;22.30;82.00
16863;DHT22;52193;48.216;-1.698;2023-06-14T04:11:50;22.30;81.90
16863;DHT22;52193;48.216;-1.698;2023-06-14T04:14:17;22.20;81.80
16863;DHT22;52193;48.216;-1.698;2023-06-14T04:16:46;22.20;82.00
16863;DHT22;52193;48.216;-1.698;2023-06-14T04:19:13;22.30;82.00
16863;DHT22;52193;48.216;-1.698;2023-06-14T04:21:40;22.20;82.00
16863;DHT22;52193;48.216;-1.698;2023-06-14T04:24:07;22.20;82.10
16863;DHT22;52193;48.216;-1.698;2023-06-14T04:26:38;22.10;82.10
16863;DHT22;52193;48.216;-1.698;2023-06-14T04:29:05;22.20;82.20
16863;DHT22;52193;48.216;-1.698;2023-06-14T04:31:32;22.10;82.10
16863;DHT22;52193;48.216;-1.698;2023-06-14T04:34:04;22.20;82.10
16863;DHT22;52193;48.216;-1.698;2023-06-14T04:36:32;22.20;82.10
16863;DHT22;52193;48.216;-1.698;2023-06-14T04:39:00;22.10;82.00
16863;DHT22;52193;48.216;-1.698;2023-06-14T04:41:29;22.20;82.20
16863;DHT22;52193;48.216;-1.698;2023-06-14T04:43:57;22.10;82.20
16863;DHT22;52193;48.216;-1.698;2023-06-14T04:46:27;22.10;82.20
16863;DHT22;52193;48.216;-1.698;2023-06-14T04:48:54;22.00;82.30
16863;DHT22;52193;48.216;-1.698;2023-06-14T04:51:23;22.00;82.40
16863;DHT22;52193;48.216;-1.698;2023-06-14T04:53:55;22.10;82.40
16863;DHT22;52193;48.216;-1.698;2023-06-14T04:56:23;22.00;82.40
16863;DHT22;52193;48.216;-1.698;2023-06-14T04:58:51;22.10;82.50
16863;DHT22;52193;48.216;-1.698;2023-06-14T05:01:18;22.00;82.40
16863;DHT22;52193;48.216;-1.698;2023-06-14T05:03:46;22.00;82.50
16863;DHT22;52193;48.216;-1.698;2023-06-14T05:06:14;22.10;82.50
16863;DHT22;52193;48.216;-1.698;2023-06-14T05:08:44;22.00;82.50
16863;DHT22;52193;48.216;-1.698;2023-06-14T05:11:11;22.00;82.70
16863;DHT22;52193;48.216;-1.698;2023-06-14T05:13:38;22.00;82.60
16863;DHT22;52193;48.216;-1.698;2023-06-14T05:16:05;22.10;82.80
16863;DHT22;52193;48.216;-1.698;2023-06-14T05:18:32;22.10;82.70
16863;DHT22;52193;48.216;-1.698;2023-06-14T05:21:00;22.10;82.70
16863;DHT22;52193;48.216;-1.698;2023-06-14T05:23:27;22.10;82.70
16863;DHT22;52193;48.216;-1.698;2023-06-14T05:25:56;22.10;82.80
16863;DHT22;52193;48.216;-1.698;2023-06-14T05:28:23;22.20;82.80
16863;DHT22;52193;48.216;-1.698;2023-06-14T05:30:50;22.20;82.70
16863;DHT22;52193;48.216;-1.698;2023-06-14T05:33:17;22.10;82.80
16863;DHT22;52193;48.216;-1.698;2023-06-14T05:35:44;22.20;82.90
16863;DHT22;52193;48.216;-1.698;2023-06-14T05:38:12;22.20;82.90
16863;DHT22;52193;48.216;-1.698;2023-06-14T05:40:39;22.20;83.10
16863;DHT22;52193;48.216;-1.698;2023-06-14T05:43:07;22.10;83.00
16863;DHT22;52193;48.216;-1.698;2023-06-14T05:45:34;22.20;83.10
16863;DHT22;52193;48.216;-1.698;2023-06-14T05:48:01;22.20;83.00
16863;DHT22;52193;48.216;-1.698;2023-06-14T05:50:28;22.20;83.10
16863;DHT22;52193;48.216;-1.698;2023-06-14T05:52:55;22.20;83.00
16863;DHT22;52193;48.216;-1.698;2023-06-14T05:55:22;22.20;83.10
16863;DHT22;52193;48.216;-1.698;2023-06-14T05:57:49;22.20;83.20
16863;DHT22;52193;48.216;-1.698;2023-06-14T06:00:18;22.30;83.10
16863;DHT22;52193;48.216;-1.698;2023-06-14T06:02:45;22.30;83.10
16863;DHT22;52193;48.216;-1.698;2023-06-14T06:05:14;22.30;83.10
16863;DHT22;52193;48.216;-1.698;2023-06-14T06:07:42;22.30;83.10
16863;DHT22;52193;48.216;-1.698;2023-06-14T06:10:10;22.40;83.10
16863;DHT22;52193;48.216;-1.698;2023-06-14T06:12:37;22.50;83.00
16863;DHT22;52193;48.216;-1.698;2023-06-14T06:15:05;22.40;82.80
16863;DHT22;52193;48.216;-1.698;2023-06-14T06:17:34;22.50;82.90
16863;DHT22;52193;48.216;-1.698;2023-06-14T06:20:01;22.50;83.00
16863;DHT22;52193;48.216;-1.698;2023-06-14T06:22:29;22.50;82.90
16863;DHT22;52193;48.216;-1.698;2023-06-14T06:24:56;22.50;82.90
16863;DHT22;52193;48.216;-1.698;2023-06-14T06:27:23;22.60;83.00
16863;DHT22;52193;48.216;-1.698;2023-06-14T06:29:50;22.60;83.00
16863;DHT22;52193;48.216;-1.698;2023-06-14T06:32:17;22.60;82.90
16863;DHT22;52193;48.216;-1.698;2023-06-14T06:34:45;22.60;82.90
16863;DHT22;52193;48.216;-1.698;2023-06-14T06:37:13;22.60;82.90
16863;DHT22;52193;48.216;-1.698;2023-06-14T06:39:40;22.60;82.90
16863;DHT22;52193;48.216;-1.698;2023-06-14T06:42:07;22.70;82.90
16863;DHT22;52193;48.216;-1.698;2023-06-14T06:44:34;22.80;82.90
16863;DHT22;52193;48.216;-1.698;2023-06-14T06:47:01;22.80;82.90
16863;DHT22;52193;48.216;-1.698;2023-06-14T06:49:28;22.80;82.90
16863;DHT22;52193;48.216;-1.698;2023-06-14T06:52:02;22.80;82.80
16863;DHT22;52193;48.216;-1.698;2023-06-14T06:54:30;22.90;82.90
16863;DHT22;52193;48.216;-1.698;2023-06-14T06:56:57;22.90;82.90
16863;DHT22;52193;48.216;-1.698;2023-06-14T06:59:24;22.90;83.00
16863;DHT22;52193;48.216;-1.698;2023-06-14T07:01:51;23.00;83.10
16863;DHT22;52193;48.216;-1.698;2023-06-14T07:04:18;23.10;83.10
16863;DHT22;52193;48.216;-1.698;2023-06-14T07:06:46;23.10;83.10
16863;DHT22;52193;48.216;-1.698;2023-06-14T07:09:15;23.10;83.20
16863;DHT22;52193;48.216;-1.698;2023-06-14T07:11:43;23.10;83.10
16863;DHT22;52193;48.216;-1.698;2023-06-14T07:14:11;23.20;83.00
16863;DHT22;52193;48.216;-1.698;2023-06-14T07:16:38;23.20;83.10
16863;DHT22;52193;48.216;-1.698;2023-06-14T07:19:06;23.30;83.00
16863;DHT22;52193;48.216;-1.698;2023-06-14T07:21:34;23.30;82.90
16863;DHT22;52193;48.216;-1.698;2023-06-14T07:24:03;23.30;83.60
16863;DHT22;52193;48.216;-1.698;2023-06-14T07:26:33;23.30;83.00
16863;DHT22;52193;48.216;-1.698;2023-06-14T07:29:00;23.40;83.00
16863;DHT22;52193;48.216;-1.698;2023-06-14T07:31:27;23.40;82.90
16863;DHT22;52193;48.216;-1.698;2023-06-14T07:33:54;23.50;82.90
16863;DHT22;52193;48.216;-1.698;2023-06-14T07:36:22;23.60;82.80
16863;DHT22;52193;48.216;-1.698;2023-06-14T07:38:49;23.60;82.70
16863;DHT22;52193;48.216;-1.698;2023-06-14T07:41:16;23.70;82.60
16863;DHT22;52193;48.216;-1.698;2023-06-14T07:43:44;23.70;82.60
16863;DHT22;52193;48.216;-1.698;2023-06-14T07:46:11;23.70;82.70
16863;DHT22;52193;48.216;-1.698;2023-06-14T07:48:38;23.80;82.70
16863;DHT22;52193;48.216;-1.698;2023-06-14T07:51:05;23.70;82.70
16863;DHT22;52193;48.216;-1.698;2023-06-14T07:53:32;23.70;82.70
16863;DHT22;52193;48.216;-1.698;2023-06-14T07:55:59;23.80;82.80
16863;DHT22;52193;48.216;-1.698;2023-06-14T07:58:26;23.90;82.80
16863;DHT22;52193;48.216;-1.698;2023-06-14T08:00:55;24.00;82.90
16863;DHT22;52193;48.216;-1.698;2023-06-14T08:03:22;24.00;82.90
16863;DHT22;52193;48.216;-1.698;2023-06-14T08:05:49;24.10;82.80
16863;DHT22;52193;48.216;-1.698;2023-06-14T08:08:16;24.10;82.90
16863;DHT22;52193;48.216;-1.698;2023-06-14T08:10:44;24.20;83.00
16863;DHT22;52193;48.216;-1.698;2023-06-14T08:13:11;24.30;83.00
16863;DHT22;52193;48.216;-1.698;2023-06-14T08:15:38;24.40;83.00
16863;DHT22;52193;48.216;-1.698;2023-06-14T08:18:07;24.50;82.80
16863;DHT22;52193;48.216;-1.698;2023-06-14T08:20:33;24.60;82.70
16863;DHT22;52193;48.216;-1.698;2023-06-14T08:23:01;24.70;82.50
16863;DHT22;52193;48.216;-1.698;2023-06-14T08:25:29;24.80;82.60
16863;DHT22;52193;48.216;-1.698;2023-06-14T08:27:56;24.80;82.60
16863;DHT22;52193;48.216;-1.698;2023-06-14T08:30:23;24.90;82.50
16863;DHT22;52193;48.216;-1.698;2023-06-14T08:32:50;25.00;82.60
16863;DHT22;52193;48.216;-1.698;2023-06-14T08:35:19;25.10;82.40
16863;DHT22;52193;48.216;-1.698;2023-06-14T08:37:46;25.20;82.40
16863;DHT22;52193;48.216;-1.698;2023-06-14T08:40:19;25.20;82.20
16863;DHT22;52193;48.216;-1.698;2023-06-14T08:42:54;25.40;82.20
16863;DHT22;52193;48.216;-1.698;2023-06-14T08:45:21;25.50;82.10
16863;DHT22;52193;48.216;-1.698;2023-06-14T08:47:50;25.50;81.90
16863;DHT22;52193;48.216;-1.698;2023-06-14T08:50:20;25.60;81.90
16863;DHT22;52193;48.216;-1.698;2023-06-14T08:52:53;25.70;81.90
16863;DHT22;52193;48.216;-1.698;2023-06-14T08:55:22;25.80;81.80
16863;DHT22;52193;48.216;-1.698;2023-06-14T08:57:51;25.90;81.70
16863;DHT22;52193;48.216;-1.698;2023-06-14T09:00:20;25.90;81.60
16863;DHT22;52193;48.216;-1.698;2023-06-14T09:02:48;25.90;81.40
16863;DHT22;52193;48.216;-1.698;2023-06-14T09:05:15;26.00;81.30
16863;DHT22;52193;48.216;-1.698;2023-06-14T09:07:45;26.10;81.30
16863;DHT22;52193;48.216;-1.698;2023-06-14T09:10:15;26.20;81.30
16863;DHT22;52193;48.216;-1.698;2023-06-14T09:12:43;26.20;81.10
16863;DHT22;52193;48.216;-1.698;2023-06-14T09:15:10;26.30;81.00
16863;DHT22;52193;48.216;-1.698;2023-06-14T09:17:38;26.40;80.80
16863;DHT22;52193;48.216;-1.698;2023-06-14T09:20:06;26.40;80.60
16863;DHT22;52193;48.216;-1.698;2023-06-14T09:22:35;26.50;80.70
16863;DHT22;52193;48.216;-1.698;2023-06-14T09:25:04;26.50;80.50
16863;DHT22;52193;48.216;-1.698;2023-06-14T09:27:32;26.70;80.50
16863;DHT22;52193;48.216;-1.698;2023-06-14T09:29:59;26.60;80.20
16863;DHT22;52193;48.216;-1.698;2023-06-14T09:32:26;26.70;80.20
16863;DHT22;52193;48.216;-1.698;2023-06-14T09:34:54;26.80;80.10
16863;DHT22;52193;48.216;-1.698;2023-06-14T09:37:28;26.90;80.00
16863;DHT22;52193;48.216;-1.698;2023-06-14T09:39:56;27.00;79.90
16863;DHT22;52193;48.216;-1.698;2023-06-14T09:42:24;27.00;79.70
16863;DHT22;52193;48.216;-1.698;2023-06-14T09:44:54;27.10;79.70
16863;DHT22;52193;48.216;-1.698;2023-06-14T09:47:21;27.20;79.50
16863;DHT22;52193;48.216;-1.698;2023-06-14T09:49:48;27.20;79.20
16863;DHT22;52193;48.216;-1.698;2023-06-14T09:52:26;27.20;79.10
16863;DHT22;52193;48.216;-1.698;2023-06-14T09:54:55;27.30;79.10
16863;DHT22;52193;48.216;-1.698;2023-06-14T09:57:23;27.40;78.80
16863;DHT22;52193;48.216;-1.698;2023-06-14T09:59:53;27.50;78.60
16863;DHT22;52193;48.216;-1.698;2023-06-14T10:02:26;27.50;78.30
16863;DHT22;52193;48.216;-1.698;2023-06-14T10:04:58;27.60;78.20
16863;DHT22;52193;48.216;-1.698;2023-06-14T10:07:37;27.70;78.10
16863;DHT22;52193;48.216;-1.698;2023-06-14T10:10:06;27.80;78.00
16863;DHT22;52193;48.216;-1.698;2023-06-14T10:12:33;27.80;77.70
16863;DHT22;52193;48.216;-1.698;2023-06-14T10:15:01;27.80;77.60
16863;DHT22;52193;48.216;-1.698;2023-06-14T10:17:35;27.90;77.60
16863;DHT22;52193;48.216;-1.698;2023-06-14T10:20:15;28.00;77.40
16863;DHT22;52193;48.216;-1.698;2023-06-14T10:22:49;28.10;77.30
16863;DHT22;52193;48.216;-1.698;2023-06-14T10:25:26;28.20;77.20
16863;DHT22;52193;48.216;-1.698;2023-06-14T10:28:02;28.20;77.00
16863;DHT22;52193;48.216;-1.698;2023-06-14T10:30:31;28.30;76.90
16863;DHT22;52193;48.216;-1.698;2023-06-14T10:33:04;28.40;76.80
16863;DHT22;52193;48.216;-1.698;2023-06-14T10:35:32;28.40;76.60
16863;DHT22;52193;48.216;-1.698;2023-06-14T10:38:08;28.40;76.30
16863;DHT22;52193;48.216;-1.698;2023-06-14T10:40:36;28.60;76.20
16863;DHT22;52193;48.216;-1.698;2023-06-14T10:43:21;28.60;76.10
16863;DHT22;52193;48.216;-1.698;2023-06-14T10:46:12;28.70;75.80
16863;DHT22;52193;48.216;-1.698;2023-06-14T10:48:40;28.70;75.20
16863;DHT22;52193;48.216;-1.698;2023-06-14T10:51:18;28.80;74.90
16863;DHT22;52193;48.216;-1.698;2023-06-14T10:53:48;28.80;74.70
16863;DHT22;52193;48.216;-1.698;2023-06-14T10:56:29;28.90;74.60
16863;DHT22;52193;48.216;-1.698;2023-06-14T10:58:57;29.10;74.60
16863;DHT22;52193;48.216;-1.698;2023-06-14T11:01:35;29.20;74.60
16863;DHT22;52193;48.216;-1.698;2023-06-14T11:04:10;29.20;74.30
16863;DHT22;52193;48.216;-1.698;2023-06-14T11:06:46;29.30;74.00
16863;DHT22;52193;48.216;-1.698;2023-06-14T11:09:54;29.40;73.60
16863;DHT22;52193;48.216;-1.698;2023-06-14T11:12:32;29.50;73.60
16863;DHT22;52193;48.216;-1.698;2023-06-14T11:15:02;29.60;73.40
16863;DHT22;52193;48.216;-1.698;2023-06-14T11:17:29;29.60;73.20
16863;DHT22;52193;48.216;-1.698;2023-06-14T11:20:08;29.70;73.00
16863;DHT22;52193;48.216;-1.698;2023-06-14T11:22:39;29.80;72.50
16863;DHT22;52193;48.216;-1.698;2023-06-14T11:25:10;29.90;72.30
16863;DHT22;52193;48.216;-1.698;2023-06-14T11:27:37;30.00;72.00
16863;DHT22;52193;48.216;-1.698;2023-06-14T11:30:07;30.10;71.70
16863;DHT22;52193;48.216;-1.698;2023-06-14T11:32:34;30.20;71.40
16863;DHT22;52193;48.216;-1.698;2023-06-14T11:35:02;30.30;71.20
16863;DHT22;52193;48.216;-1.698;2023-06-14T11:37:30;30.40;70.80
16863;DHT22;52193;48.216;-1.698;2023-06-14T11:39:58;30.60;70.50
16863;DHT22;52193;48.216;-1.698;2023-06-14T11:42:28;30.80;70.10
16863;DHT22;52193;48.216;-1.698;2023-06-14T11:44:55;30.90;69.70
16863;DHT22;52193;48.216;-1.698;2023-06-14T11:47:22;31.10;69.30
16863;DHT22;52193;48.216;-1.698;2023-06-14T11:49:49;31.20;68.50
16863;DHT22;52193;48.216;-1.698;2023-06-14T11:52:17;31.50;67.80
16863;DHT22;52193;48.216;-1.698;2023-06-14T11:54:47;31.90;67.50
16863;DHT22;52193;48.216;-1.698;2023-06-14T11:57:14;32.20;67.10
16863;DHT22;52193;48.216;-1.698;2023-06-14T11:59:44;32.40;66.00
16863;DHT22;52193;48.216;-1.698;2023-06-14T12:02:14;32.90;66.00
16863;DHT22;52193;48.216;-1.698;2023-06-14T12:04:41;33.30;65.60
16863;DHT22;52193;48.216;-1.698;2023-06-14T12:07:11;33.70;65.10
16863;DHT22;52193;48.216;-1.698;2023-06-14T12:09:40;34.10;64.40
16863;DHT22;52193;48.216;-1.698;2023-06-14T12:12:10;34.40;63.60
16863;DHT22;52193;48.216;-1.698;2023-06-14T12:14:36;34.80;63.10
16863;DHT22;52193;48.216;-1.698;2023-06-14T12:17:06;35.20;62.40
16863;DHT22;52193;48.216;-1.698;2023-06-14T12:19:33;35.60;61.90
16863;DHT22;52193;48.216;-1.698;2023-06-14T12:22:09;36.10;61.60
16863;DHT22;52193;48.216;-1.698;2023-06-14T12:24:36;36.70;61.20
16863;DHT22;52193;48.216;-1.698;2023-06-14T12:27:04;37.20;60.30
16863;DHT22;52193;48.216;-1.698;2023-06-14T12:29:31;37.70;59.40
16863;DHT22;52193;48.216;-1.698;2023-06-14T12:31:59;38.20;58.80
16863;DHT22;52193;48.216;-1.698;2023-06-14T12:34:27;38.70;58.50
16863;DHT22;52193;48.216;-1.698;2023-06-14T12:36:54;39.30;57.70
16863;DHT22;52193;48.216;-1.698;2023-06-14T12:39:21;40.00;56.90
16863;DHT22;52193;48.216;-1.698;2023-06-14T12:41:50;40.60;56.20
16863;DHT22;52193;48.216;-1.698;2023-06-14T12:44:17;41.10;55.30
16863;DHT22;52193;48.216;-1.698;2023-06-14T12:46:44;41.60;54.30
16863;DHT22;52193;48.216;-1.698;2023-06-14T12:49:11;42.30;53.80
16863;DHT22;52193;48.216;-1.698;2023-06-14T12:51:40;42.70;53.20
16863;DHT22;52193;48.216;-1.698;2023-06-14T12:54:07;43.30;52.80
16863;DHT22;52193;48.216;-1.698;2023-06-14T12:56:34;43.90;52.30
16863;DHT22;52193;48.216;-1.698;2023-06-14T12:59:01;44.20;51.70
16863;DHT22;52193;48.216;-1.698;2023-06-14T13:01:28;44.80;51.10
16863;DHT22;52193;48.216;-1.698;2023-06-14T13:03:55;45.10;50.40
16863;DHT22;52193;48.216;-1.698;2023-06-14T13:06:22;45.70;49.70
16863;DHT22;52193;48.216;-1.698;2023-06-14T13:08:51;46.00;48.70
16863;DHT22;52193;48.216;-1.698;2023-06-14T13:11:20;46.70;48.40
16863;DHT22;52193;48.216;-1.698;2023-06-14T13:13:47;47.60;47.90
16863;DHT22;52193;48.216;-1.698;2023-06-14T13:16:14;48.40;47.20
16863;DHT22;52193;48.216;-1.698;2023-06-14T13:18:41;49.20;46.70
16863;DHT22;52193;48.216;-1.698;2023-06-14T13:21:08;49.90;46.00
16863;DHT22;52193;48.216;-1.698;2023-06-14T13:23:34;50.70;45.50
16863;DHT22;52193;48.216;-1.698;2023-06-14T13:26:03;51.60;45.00
16863;DHT22;52193;48.216;-1.698;2023-06-14T13:28:30;52.30;44.30
16863;DHT22;52193;48.216;-1.698;2023-06-14T13:30:58;52.70;43.10
16863;DHT22;52193;48.216;-1.698;2023-06-14T13:33:25;53.30;42.80
16863;DHT22;52193;48.216;-1.698;2023-06-14T13:35:52;54.00;42.60
16863;DHT22;52193;48.216;-1.698;2023-06-14T13:38:19;54.70;42.70
16863;DHT22;52193;48.216;-1.698;2023-06-14T13:40:46;55.10;41.40
16863;DHT22;52193;48.216;-1.698;2023-06-14T13:43:14;55.60;41.10
16863;DHT22;52193;48.216;-1.698;2023-06-14T13:45:41;56.20;40.70
16863;DHT22;52193;48.216;-1.698;2023-06-14T13:48:08;56.80;40.40
16863;DHT22;52193;48.216;-1.698;2023-06-14T13:50:35;57.30;40.20
16863;DHT22;52193;48.216;-1.698;2023-06-14T13:53:02;57.50;39.60
16863;DHT22;52193;48.216;-1.698;2023-06-14T13:55:29;57.70;39.30
16863;DHT22;52193;48.216;-1.698;2023-06-14T13:57:56;57.80;39.20
16863;DHT22;52193;48.216;-1.698;2023-06-14T14:00:24;58.10;39.30
16863;DHT22;52193;48.216;-1.698;2023-06-14T14:02:51;57.80;38.60
16863;DHT22;52193;48.216;-1.698;2023-06-14T14:05:18;57.80;38.20
16863;DHT22;52193;48.216;-1.698;2023-06-14T14:07:46;57.80;38.10
16863;DHT22;52193;48.216;-1.698;2023-06-14T14:10:13;57.80;37.90
16863;DHT22;52193;48.216;-1.698;2023-06-14T14:12:40;57.60;37.90
16863;DHT22;52193;48.216;-1.698;2023-06-14T14:15:07;57.60;37.80
16863;DHT22;52193;48.216;-1.698;2023-06-14T14:17:39;57.20;37.50
16863;DHT22;52193;48.216;-1.698;2023-06-14T14:20:07;55.70;37.30
16863;DHT22;52193;48.216;-1.698;2023-06-14T14:22:34;54.40;38.00
16863;DHT22;52193;48.216;-1.698;2023-06-14T14:25:01;54.40;38.90
16863;DHT22;52193;48.216;-1.698;2023-06-14T14:27:28;54.60;38.90
16863;DHT22;52193;48.216;-1.698;2023-06-14T14:29:55;54.60;38.90
16863;DHT22;52193;48.216;-1.698;2023-06-14T14:32:22;54.50;39.10
16863;DHT22;52193;48.216;-1.698;2023-06-14T14:34:50;54.60;38.90
16863;DHT22;52193;48.216;-1.698;2023-06-14T14:37:17;54.30;38.90
16863;DHT22;52193;48.216;-1.698;2023-06-14T14:39:44;54.00;39.00
16863;DHT22;52193;48.216;-1.698;2023-06-14T14:42:12;53.80;39.10
16863;DHT22;52193;48.216;-1.698;2023-06-14T14:44:39;53.50;39.30
16863;DHT22;52193;48.216;-1.698;2023-06-14T14:47:06;53.30;39.50
16863;DHT22;52193;48.216;-1.698;2023-06-14T14:49:33;53.20;39.90
16863;DHT22;52193;48.216;-1.698;2023-06-14T14:52:01;52.80;39.80
16863;DHT22;52193;48.216;-1.698;2023-06-14T14:54:28;52.60;39.50
16863;DHT22;52193;48.216;-1.698;2023-06-14T14:56:55;52.40;39.90
16863;DHT22;52193;48.216;-1.698;2023-06-14T14:59:22;52.30;40.00
16863;DHT22;52193;48.216;-1.698;2023-06-14T15:01:49;52.20;40.10
16863;DHT22;52193;48.216;-1.698;2023-06-14T15:04:16;52.10;40.10
16863;DHT22;52193;48.216;-1.698;2023-06-14T15:06:43;51.70;40.30
16863;DHT22;52193;48.216;-1.698;2023-06-14T15:09:11;51.70;40.50
16863;DHT22;52193;48.216;-1.698;2023-06-14T15:11:38;51.50;40.40
16863;DHT22;52193;48.216;-1.698;2023-06-14T15:14:05;51.00;40.60
16863;DHT22;52193;48.216;-1.698;2023-06-14T15:16:32;50.90;40.60
16863;DHT22;52193;48.216;-1.698;2023-06-14T15:18:59;50.60;40.60
16863;DHT22;52193;48.216;-1.698;2023-06-14T15:21:26;50.30;41.00